Time;durP1;ratioP1;P1;durP2;ratioP2;P2;SDS_P1;SDS_P2;PMS_P1;PMS_P2;Temp;Humidity;BMP_temperature;BMP_pressure;BME280_temperature;BME280_humidity;BME280_pressure;Samples;Min_cycle;Max_cycle;Signal;HPM_P1;HPM_P2
2022/06/03 00:02:09;;;;;;;6.10;5.50;;;;;;;10.09;82.97;100867.53;5101078;27;20991;-66
2022/06/03 00:04:58;;;;;;;5.83;4.93;;;;;;;10.07;83.00;100859.63;5102728;28;20454;-67
2022/06/03 00:07:32;;;;;;;6.07;5.07;;;;;;;10.01;82.95;100865.44;5101229;28;20479;-67
2022/06/03 00:10:22;;;;;;;7.93;4.87;;;;;;;10.05;82.83;100853.56;5100900;28;20502;-68
2022/06/03 00:12:52;;;;;;;6.17;5.57;;;;;;;10.03;82.67;100854.66;5102222;28;20838;-67
2022/06/03 00:15:26;;;;;;;5.97;5.37;;;;;;;9.98;82.51;100860.34;5100219;28;20473;-66
2022/06/03 00:18:36;;;;;;;6.30;5.80;;;;;;;9.86;82.67;100858.66;5102358;28;20431;-66
2022/06/03 00:21:04;;;;;;;6.07;5.47;;;;;;;9.87;82.67;100865.69;5097189;28;20534;-68
2022/06/03 00:23:53;;;;;;;5.53;5.00;;;;;;;9.86;82.21;100861.31;5102179;28;20443;-67
2022/06/03 00:26:49;;;;;;;5.73;5.13;;;;;;;9.81;82.45;100861.69;5101004;28;20536;-68
2022/06/03 00:29:32;;;;;;;6.00;4.70;;;;;;;9.79;82.91;100856.47;5101714;28;21011;-68
2022/06/03 00:32:31;;;;;;;6.40;5.07;;;;;;;9.79;82.84;100861.81;5080754;28;20483;-67
2022/06/03 00:35:15;;;;;;;6.33;5.70;;;;;;;9.77;82.78;100853.09;5099236;28;21016;-68
2022/06/03 00:37:47;;;;;;;6.33;5.47;;;;;;;9.80;82.85;100850.16;5092817;28;20472;-67
2022/06/03 00:40:29;;;;;;;5.40;4.87;;;;;;;9.76;82.52;100846.03;5100047;28;20990;-68
2022/06/03 00:43:17;;;;;;;5.90;5.03;;;;;;;9.66;82.51;100842.38;5101975;28;20454;-65
2022/06/03 00:46:16;;;;;;;5.47;4.97;;;;;;;9.63;82.96;100845.28;5079588;28;20486;-66
2022/06/03 00:48:54;;;;;;;5.43;4.87;;;;;;;9.54;83.03;100841.50;5088766;28;20471;-68
2022/06/03 00:51:45;;;;;;;5.20;4.70;;;;;;;9.42;83.43;100843.31;5100516;28;20467;-67
2022/06/03 00:54:26;;;;;;;5.60;5.10;;;;;;;9.45;83.61;100836.91;5080198;28;20866;-67
2022/06/03 00:57:06;;;;;;;5.10;4.60;;;;;;;9.42;83.52;100842.47;5086915;28;20475;-66
2022/06/03 00:59:48;;;;;;;5.40;4.90;;;;;;;9.37;83.78;100839.31;5100752;28;20427;-66
2022/06/03 01:02:22;;;;;;;5.87;5.23;;;;;;;9.36;83.49;100830.47;5100236;28;20501;-67
2022/06/03 01:05:01;;;;;;;5.63;5.13;;;;;;;9.33;83.67;100835.19;5117264;28;20499;-68
2022/06/03 01:07:38;;;;;;;5.53;5.00;;;;;;;9.30;83.57;100833.59;5109435;28;20517;-66
2022/06/03 01:10:13;;;;;;;5.03;4.63;;;;;;;9.22;83.56;100830.69;5100167;28;20509;-64
2022/06/03 01:12:59;;;;;;;5.67;5.10;;;;;;;9.21;83.77;100832.47;5101686;28;20840;-68
2022/06/03 01:15:34;;;;;;;5.60;5.10;;;;;;;9.17;83.78;100828.34;5082913;28;21499;-68
2022/06/03 01:18:18;;;;;;;4.90;4.50;;;;;;;9.19;83.47;100837.09;5096399;28;21028;-69
2022/06/03 01:20:58;;;;;;;5.17;4.73;;;;;;;9.13;83.10;100839.38;5098138;28;20467;-69
2022/06/03 01:23:59;;;;;;;5.87;4.50;;;;;;;9.11;83.06;100835.97;5101898;28;20427;-69
2022/06/03 01:26:48;;;;;;;6.60;5.20;;;;;;;9.08;83.34;100834.41;5081938;28;20497;-68
2022/06/03 01:29:29;;;;;;;5.60;5.10;;;;;;;9.09;83.72;100825.41;5096791;28;20885;-68
2022/06/03 01:32:35;;;;;;;5.50;5.00;;;;;;;8.97;83.71;100839.69;5094775;28;20474;-68
2022/06/03 01:35:21;;;;;;;4.80;4.27;;;;;;;8.89;83.93;100840.28;5090189;28;20487;-68
2022/06/03 01:37:51;;;;;;;6.00;5.30;;;;;;;8.82;84.46;100834.53;5081744;28;20458;-67
2022/06/03 01:40:57;;;;;;;5.40;4.97;;;;;;;8.82;84.58;100826.53;5100169;28;20458;-67
2022/06/03 01:43:39;;;;;;;5.33;4.83;;;;;;;8.85;84.47;100828.13;5099058;28;20434;-68
2022/06/03 01:46:26;;;;;;;7.00;5.90;;;;;;;8.81;84.46;100830.16;5081525;28;20480;-66
2022/06/03 01:49:31;;;;;;;6.93;5.37;;;;;;;8.79;84.50;100824.09;5090323;28;20474;-67
2022/06/03 01:52:55;;;;;;;5.53;5.03;;;;;;;8.76;84.38;100828.81;5058635;28;20476;-68
2022/06/03 01:56:04;;;;;;;6.40;5.80;;;;;;;8.78;84.84;100829.53;5015771;28;20482;-68
2022/06/03 01:59:06;;;;;;;6.63;6.03;;;;;;;8.77;84.68;100827.88;5080731;28;20444;-68
2022/06/03 02:01:47;;;;;;;5.70;5.20;;;;;;;8.69;85.09;100830.25;5094420;28;20515;-67
2022/06/03 02:04:27;;;;;;;6.57;5.97;;;;;;;8.59;85.31;100832.72;5096884;28;20443;-68
2022/06/03 02:07:30;;;;;;;6.90;6.27;;;;;;;8.61;85.57;100833.47;5100125;28;20547;-67
2022/06/03 02:10:37;;;;;;;8.67;6.40;;;;;;;8.63;85.68;100826.22;5037791;28;20478;-68
2022/06/03 02:13:40;;;;;;;6.97;6.37;;;;;;;8.59;85.75;100827.41;5100390;28;20469;-67
2022/06/03 02:16:34;;;;;;;8.13;6.70;;;;;;;8.57;85.90;100826.66;5102798;28;20473;-68
2022/06/03 02:19:27;;;;;;;7.83;7.10;;;;;;;8.54;86.05;100817.09;5104881;28;20465;-67
2022/06/03 02:22:27;;;;;;;7.50;6.90;;;;;;;8.58;85.85;100815.91;5103943;28;20470;-67
2022/06/03 02:25:22;;;;;;;7.87;7.17;;;;;;;8.59;85.68;100817.59;5103933;28;20963;-68
2022/06/03 02:28:04;;;;;;;6.67;6.17;;;;;;;8.61;85.63;100814.81;5104643;28;20443;-68
2022/06/03 02:30:39;;;;;;;7.83;7.00;;;;;;;8.59;85.66;100812.28;5102861;28;20478;-67
2022/06/03 02:33:44;;;;;;;8.20;6.50;;;;;;;8.58;85.45;100815.06;5104213;28;20431;-68
2022/06/03 02:36:55;;;;;;;7.10;6.40;;;;;;;8.54;84.99;100814.44;5103224;28;20463;-67
2022/06/03 02:39:51;;;;;;;10.20;6.77;;;;;;;8.54;84.94;100811.75;5104136;28;20435;-69
2022/06/03 02:42:45;;;;;;;7.77;7.07;;;;;;;8.50;85.21;100812.09;5104028;28;20597;-67
2022/06/03 02:45:30;;;;;;;7.30;6.30;;;;;;;8.44;85.12;100816.91;5099367;28;20515;-67
2022/06/03 02:48:25;;;;;;;7.67;6.97;;;;;;;8.40;85.13;100812.75;5103893;28;20487;-68
2022/06/03 02:51:11;;;;;;;7.63;6.93;;;;;;;8.40;85.29;100818.09;5099291;28;20490;-68
2022/06/03 02:53:56;;;;;;;7.57;6.97;;;;;;;8.39;85.15;100796.88;5103165;28;20844;-68
2022/06/03 02:56:43;;;;;;;8.03;7.07;;;;;;;8.41;85.22;100790.47;5102882;28;20483;-66
2022/06/03 02:59:32;;;;;;;7.20;6.60;;;;;;;8.42;85.30;100785.97;5103538;28;20439;-68
2022/06/03 03:02:24;;;;;;;7.50;6.50;;;;;;;8.43;84.98;100791.22;5102638;28;20497;-69
2022/06/03 03:05:04;;;;;;;8.17;7.47;;;;;;;8.42;84.83;100793.97;5103443;28;20455;-69
2022/06/03 03:07:55;;;;;;;8.07;7.27;;;;;;;8.42;84.96;100804.63;5102155;28;20505;-67
2022/06/03 03:10:58;;;;;;;7.90;6.50;;;;;;;8.42;84.70;100793.97;5102475;28;20486;-67
2022/06/03 03:13:57;;;;;;;6.57;5.97;;;;;;;8.23;84.41;100794.50;5103116;28;20862;-68
2022/06/03 03:16:37;;;;;;;9.13;5.60;;;;;;;8.11;84.04;100796.22;5101212;28;20491;-69
2022/06/03 03:19:35;;;;;;;6.70;5.63;;;;;;;8.19;83.79;100796.50;5103885;28;20431;-68
2022/06/03 03:22:36;;;;;;;6.80;6.20;;;;;;;8.34;83.54;100796.38;5102555;28;20513;-69
2022/06/03 03:25:32;;;;;;;5.60;5.20;;;;;;;8.40;83.30;100802.09;5103060;28;20505;-69
2022/06/03 03:28:40;;;;;;;6.87;6.17;;;;;;;8.41;82.69;100790.47;5102937;28;20475;-68
2022/06/03 03:31:28;;;;;;;8.80;7.00;;;;;;;8.45;83.20;100797.31;5102171;28;20517;-68
2022/06/03 03:34:24;;;;;;;7.00;6.40;;;;;;;9.02;82.09;100790.34;5102875;28;20467;-67
2022/06/03 03:37:33;;;;;;;7.60;6.87;;;;;;;11.58;75.12;100782.03;5100020;28;20479;-64
2022/06/03 03:40:25;;;;;;;8.00;7.30;;;;;;;13.38;66.63;100795.28;5102233;28;20442;-68
2022/06/03 03:43:35;;;;;;;8.10;6.97;;;;;;;14.77;60.63;100781.78;5094627;28;20498;-70
2022/06/03 03:46:42;;;;;;;6.33;5.67;;;;;;;15.49;55.25;100782.50;5083952;28;20466;-67
2022/06/03 03:49:24;;;;;;;5.03;4.63;;;;;;;15.80;53.40;100780.16;5102902;28;20708;-67
2022/06/03 03:52:33;;;;;;;4.83;4.40;;;;;;;15.22;54.99;100780.78;5085932;28;20479;-66
2022/06/03 03:55:28;;;;;;;4.70;4.30;;;;;;;16.71;50.79;100781.22;5101686;28;20470;-68
2022/06/03 03:58:19;;;;;;;5.13;3.90;;;;;;;15.94;52.26;100785.94;5102657;28;20459;-68
2022/06/03 04:01:24;;;;;;;3.53;3.23;;;;;;;16.54;51.68;100788.47;5101688;28;20479;-67
2022/06/03 04:04:13;;;;;;;4.43;4.03;;;;;;;17.20;49.82;100783.09;5095150;28;20518;-67
2022/06/03 04:07:15;;;;;;;4.23;3.83;;;;;;;18.00;47.37;100778.66;5100250;28;20487;-68
2022/06/03 04:10:12;;;;;;;4.70;3.93;;;;;;;18.21;46.26;100784.31;5084346;28;20472;-69
2022/06/03 04:13:12;;;;;;;4.80;3.60;;;;;;;17.39;48.25;100783.75;5098156;28;20490;-68
2022/06/03 04:16:08;;;;;;;4.13;3.83;;;;;;;17.99;47.34;100783.22;5100528;28;20471;-69
2022/06/03 04:19:09;;;;;;;3.57;3.27;;;;;;;18.73;44.72;100780.09;5073536;28;20475;-67
2022/06/03 04:22:00;;;;;;;4.27;3.37;;;;;;;18.48;44.99;100782.13;5086653;28;20475;-61
2022/06/03 04:24:41;;;;;;;3.73;3.40;;;;;;;18.23;46.26;100776.84;5090631;28;20959;-62
2022/06/03 04:27:41;;;;;;;4.10;3.43;;;;;;;18.83;45.01;100779.03;5093478;28;20483;-62
2022/06/03 04:30:42;;;;;;;3.97;3.60;;;;;;;19.23;44.15;100776.97;5097812;28;20471;-63
2022/06/03 04:33:49;;;;;;;3.90;3.33;;;;;;;19.52;43.24;100778.88;5100992;28;20469;-63
2022/06/03 04:36:45;;;;;;;3.13;2.93;;;;;;;19.39;43.34;100784.94;5097396;28;20517;-65
2022/06/03 04:39:48;;;;;;;4.07;3.60;;;;;;;19.08;44.36;100782.34;5106750;28;20851;-64
2022/06/03 04:42:53;;;;;;;4.50;3.93;;;;;;;19.10;44.48;100783.88;5079987;28;20474;-65
2022/06/03 04:45:47;;;;;;;4.53;3.40;;;;;;;18.93;45.25;100775.03;5098647;28;20473;-65
2022/06/03 04:48:49;;;;;;;4.33;3.93;;;;;;;19.29;44.75;100777.06;5101294;28;20435;-65
2022/06/03 04:51:54;;;;;;;4.50;4.10;;;;;;;19.78;43.87;100766.75;5099348;28;20474;-65
2022/06/03 04:55:02;;;;;;;4.53;3.93;;;;;;;19.96;43.31;100777.19;5081231;28;20428;-64
2022/06/03 04:57:50;;;;;;;6.10;3.93;;;;;;;20.83;41.24;100769.00;5080889;28;20474;-65
2022/06/03 05:00:36;;;;;;;4.40;3.70;;;;;;;20.68;41.29;100771.75;5096618;28;20473;-65
2022/06/03 05:03:40;;;;;;;4.87;3.90;;;;;;;18.70;44.57;100763.34;5100156;28;20484;-65
2022/06/03 05:06:44;;;;;;;5.50;4.37;;;;;;;20.18;43.53;100767.25;5099908;28;20514;-65
2022/06/03 05:09:48;;;;;;;4.80;4.40;;;;;;;21.13;41.03;100763.38;5101451;28;20446;-65
2022/06/03 05:12:54;;;;;;;4.40;4.00;;;;;;;18.95;45.64;100756.72;5099001;28;20470;-65
2022/06/03 05:15:58;;;;;;;5.20;4.63;;;;;;;19.82;43.90;100749.88;5037001;28;20712;-64
2022/06/03 05:19:03;;;;;;;4.60;4.17;;;;;;;20.22;42.94;100754.94;5092579;28;20440;-64
2022/06/03 05:21:56;;;;;;;5.23;4.73;;;;;;;20.79;40.94;100755.97;5098032;28;20532;-64
2022/06/03 05:24:49;;;;;;;5.03;4.57;;;;;;;21.21;40.44;100757.78;5091774;28;20443;-65
2022/06/03 05:27:46;;;;;;;6.60;4.20;;;;;;;22.12;38.80;100758.72;5098735;28;21039;-64
2022/06/03 05:30:33;;;;;;;4.03;3.73;;;;;;;22.18;38.03;100747.81;5100165;28;20532;-65
2022/06/03 05:33:39;;;;;;;4.77;4.23;;;;;;;22.41;38.35;100749.41;5101525;28;20484;-65
2022/06/03 05:36:42;;;;;;;5.17;4.63;;;;;;;21.87;39.56;100756.50;5100071;28;20500;-65
2022/06/03 05:40:00;;;;;;;5.83;3.30;;;;;;;22.38;37.98;100752.53;5099712;28;20504;-66
2022/06/03 05:42:43;;;;;;;4.43;3.60;;;;;;;20.72;41.36;100760.50;5068380;28;20510;-65
2022/06/03 05:45:48;;;;;;;4.10;3.80;;;;;;;22.48;38.67;100752.97;5078840;28;20448;-66
2022/06/03 05:48:20;;;;;;;5.97;3.90;;;;;;;21.48;39.46;100758.00;5080455;28;20444;-66
2022/06/03 05:50:52;;;;;;;3.93;3.60;;;;;;;21.81;38.92;100751.88;5095417;28;20512;-65
2022/06/03 05:53:38;;;;;;;4.50;3.10;;;;;;;22.25;38.76;100744.28;5100079;28;20439;-64
2022/06/03 05:56:21;;;;;;;3.80;3.40;;;;;;;20.73;41.92;100746.75;5087884;28;20482;-64
2022/06/03 05:58:54;;;;;;;4.87;3.40;;;;;;;22.12;38.61;100743.22;5104591;28;20431;-64
2022/06/03 06:01:45;;;;;;;5.20;3.53;;;;;;;21.39;40.17;100751.00;5099128;28;20524;-65
2022/06/03 06:04:17;;;;;;;4.57;4.03;;;;;;;21.84;38.92;100747.91;5104089;28;20423;-65
2022/06/03 06:06:54;;;;;;;4.30;3.90;;;;;;;21.99;39.41;100743.16;5103157;28;20487;-65
2022/06/03 06:09:43;;;;;;;6.37;3.20;;;;;;;22.91;37.57;100741.69;5083205;28;20438;-63
2022/06/03 06:12:20;;;;;;;3.70;3.33;;;;;;;23.19;37.37;100742.53;5087691;28;20501;-63
2022/06/03 06:15:06;;;;;;;3.40;3.10;;;;;;;23.45;37.09;100733.44;5083321;28;20431;-63
2022/06/03 06:17:45;;;;;;;4.67;3.13;;;;;;;22.74;37.75;100729.50;5081979;28;20863;-63
2022/06/03 06:20:20;;;;;;;6.20;3.77;;;;;;;23.17;37.57;100728.25;5082737;28;20531;-63
2022/06/03 06:22:49;;;;;;;3.80;2.83;;;;;;;23.23;36.14;100725.53;5083824;28;20431;-63
2022/06/03 06:25:23;;;;;;;3.43;3.13;;;;;;;23.23;36.88;100738.34;5082174;28;20451;-63
2022/06/03 06:28:01;;;;;;;5.93;5.40;;;;;;;23.23;37.84;100738.34;5083395;28;20448;-63
2022/06/03 06:31:04;;;;;;;3.00;2.80;;;;;;;23.85;36.24;100727.88;5081535;28;21011;-63
2022/06/03 06:33:54;;;;;;;3.83;2.80;;;;;;;23.33;36.83;100722.34;5009186;28;20462;-63
2022/06/03 06:37:09;;;;;;;3.90;3.20;;;;;;;22.56;39.39;100722.78;5082799;28;20483;-63
2022/06/03 06:39:51;;;;;;;3.07;2.87;;;;;;;23.99;36.08;100721.31;5062535;28;20444;-64
2022/06/03 06:42:26;;;;;;;4.57;3.20;;;;;;;23.44;36.41;100724.44;5061958;28;20484;-63
2022/06/03 06:45:05;;;;;;;4.23;3.30;;;;;;;24.00;36.55;100725.72;5061992;28;20490;-64
2022/06/03 06:47:36;;;;;;;4.60;3.10;;;;;;;24.76;34.55;100725.91;5069301;28;20472;-63
2022/06/03 06:50:12;;;;;;;3.30;3.00;;;;;;;22.98;36.22;100724.47;5082980;28;20467;-63
2022/06/03 06:52:51;;;;;;;3.10;2.80;;;;;;;23.43;36.58;100730.09;5083447;28;20609;-63
2022/06/03 06:55:22;;;;;;;4.43;3.00;;;;;;;23.21;37.78;100719.47;5081367;28;20448;-64
2022/06/03 06:57:50;;;;;;;2.90;2.60;;;;;;;22.74;37.33;100721.31;5083201;28;20929;-63
2022/06/03 07:00:20;;;;;;;3.67;2.90;;;;;;;23.15;36.52;100728.47;5081298;28;20976;-64
2022/06/03 07:02:53;;;;;;;3.67;3.00;;;;;;;22.89;36.94;100727.41;5081796;28;20448;-63
2022/06/03 07:05:27;;;;;;;3.03;2.73;;;;;;;23.56;35.83;100724.63;5078445;28;20444;-63
2022/06/03 07:07:59;;;;;;;3.90;3.07;;;;;;;23.93;34.75;100718.63;5099938;28;21099;-63
2022/06/03 07:10:28;;;;;;;3.53;2.80;;;;;;;23.88;34.56;100711.91;5099165;28;20524;-64
2022/06/03 07:13:01;;;;;;;4.07;2.80;;;;;;;24.56;34.76;100724.13;5101300;28;20939;-63
2022/06/03 07:15:41;;;;;;;3.77;2.53;;;;;;;23.49;34.86;100726.53;5095664;28;20443;-63
2022/06/03 07:21:07;;;;;;;4.13;3.03;;;;;;;24.86;32.94;100733.56;5101171;28;20845;-64
2022/06/03 07:23:40;;;;;;;5.77;2.97;;;;;;;24.45;34.47;100719.34;5101680;28;20504;-63
2022/06/03 07:26:12;;;;;;;3.20;2.50;;;;;;;24.84;33.29;100716.56;5101248;28;20467;-64
2022/06/03 07:28:43;;;;;;;2.80;2.60;;;;;;;24.42;34.28;100709.69;5100825;28;20563;-64
2022/06/03 07:31:15;;;;;;;4.00;2.83;;;;;;;24.11;33.58;100706.97;5099261;28;20475;-63
2022/06/03 07:33:54;;;;;;;3.10;2.47;;;;;;;24.51;33.35;100704.81;5101633;28;20496;-63
2022/06/03 07:36:29;;;;;;;2.93;2.57;;;;;;;24.26;34.71;100699.31;5098023;28;20481;-64
2022/06/03 07:38:58;;;;;;;3.30;3.00;;;;;;;24.76;33.78;100693.09;5095146;28;20439;-64
2022/06/03 07:41:31;;;;;;;2.93;2.53;;;;;;;24.62;33.77;100697.81;5101260;28;20498;-63
2022/06/03 07:44:02;;;;;;;4.03;2.17;;;;;;;24.39;33.52;100698.38;5097686;28;21328;-64
2022/06/03 07:46:32;;;;;;;3.33;2.70;;;;;;;24.87;33.50;100683.31;5100585;28;20486;-64
2022/06/03 07:49:04;;;;;;;2.80;2.50;;;;;;;25.35;32.12;100690.84;5116328;28;20445;-64
2022/06/03 07:51:33;;;;;;;3.03;2.80;;;;;;;26.04;31.84;100685.13;5102132;28;20513;-64
2022/06/03 07:54:05;;;;;;;2.43;2.00;;;;;;;25.66;31.44;100689.84;5100204;28;20527;-65
2022/06/03 07:56:34;;;;;;;2.50;2.30;;;;;;;25.47;31.70;100694.50;5098746;28;20477;-65
2022/06/03 07:59:10;;;;;;;2.53;2.20;;;;;;;25.55;31.39;100707.88;5108679;28;20467;-65
2022/06/03 08:01:42;;;;;;;2.40;1.73;;;;;;;26.18;30.29;100685.78;5106015;28;20539;-65
2022/06/03 08:04:14;;;;;;;3.17;2.50;;;;;;;26.57;30.03;100695.31;5108282;28;20451;-64
2022/06/03 08:12:11;;;;;;;3.07;2.00;;;;;;;25.69;31.19;100689.38;5090419;28;20485;-64
2022/06/03 08:14:38;;;;;;;4.20;2.20;;;;;;;25.71;31.11;100695.47;5082385;28;20448;-64
2022/06/03 08:17:08;;;;;;;3.93;3.03;;;;;;;24.82;32.40;100689.44;5080842;28;20479;-64
2022/06/03 08:19:38;;;;;;;2.10;1.90;;;;;;;26.40;30.27;100683.34;5100710;28;20447;-64
2022/06/03 08:22:08;;;;;;;2.53;2.03;;;;;;;27.52;29.38;100692.59;5096644;28;20574;-64
2022/06/03 08:24:36;;;;;;;2.30;2.07;;;;;;;27.48;28.93;100689.50;5098107;28;20446;-64
2022/06/03 08:27:05;;;;;;;3.03;2.03;;;;;;;27.52;28.65;100685.19;5079098;28;20541;-64
2022/06/03 08:29:35;;;;;;;2.10;1.80;;;;;;;27.77;27.64;100687.59;5096678;28;20477;-64
2022/06/03 08:32:06;;;;;;;2.10;1.90;;;;;;;26.25;29.07;100670.94;5062821;28;20507;-64
2022/06/03 08:34:38;;;;;;;2.27;2.07;;;;;;;25.70;29.53;100677.34;5088021;28;20447;-64
2022/06/03 08:37:05;;;;;;;2.27;1.77;;;;;;;25.70;30.83;100671.03;5085457;28;21095;-63
2022/06/03 08:39:33;;;;;;;4.10;1.83;;;;;;;26.93;28.60;100671.50;5081713;28;20436;-63
2022/06/03 08:42:11;;;;;;;1.90;1.80;;;;;;;26.74;29.01;100673.53;5075261;28;20478;-63
2022/06/03 08:44:47;;;;;;;2.33;2.13;;;;;;;26.89;29.04;100674.97;5078740;28;20490;-64
2022/06/03 08:47:19;;;;;;;3.43;2.17;;;;;;;27.00;28.84;100668.66;5079806;28;20471;-63
2022/06/03 08:49:57;;;;;;;2.47;2.10;;;;;;;26.26;29.75;100666.28;5097007;28;20493;-64
2022/06/03 08:52:31;;;;;;;3.20;2.43;;;;;;;26.97;29.00;100669.13;5092599;28;20487;-64
2022/06/03 08:54:59;;;;;;;3.13;2.30;;;;;;;26.93;29.37;100662.47;5080061;28;20462;-63
2022/06/03 08:57:32;;;;;;;3.50;1.80;;;;;;;27.45;28.04;100661.66;5079476;28;20464;-63
2022/06/03 09:00:07;;;;;;;2.50;1.77;;;;;;;26.44;29.94;100660.72;5078475;28;20510;-63
2022/06/03 09:02:37;;;;;;;2.37;1.43;;;;;;;26.89;29.47;100656.63;5092426;28;20497;-64
2022/06/03 09:05:09;;;;;;;1.63;1.40;;;;;;;27.37;28.30;100665.66;5079362;28;20486;-65
2022/06/03 09:07:39;;;;;;;2.60;1.80;;;;;;;27.73;27.75;100658.16;5091650;28;20496;-63
2022/06/03 09:10:15;;;;;;;2.47;2.00;;;;;;;27.61;27.51;100655.44;5099366;28;20447;-63
2022/06/03 09:12:54;;;;;;;1.80;1.50;;;;;;;27.48;28.08;100661.19;5085726;28;21069;-63
2022/06/03 09:15:23;;;;;;;3.00;1.93;;;;;;;27.94;27.84;100651.97;5097629;28;20958;-64
2022/06/03 09:17:53;;;;;;;3.03;1.60;;;;;;;28.42;26.94;100657.19;5099587;28;20808;-64
2022/06/03 09:20:26;;;;;;;2.30;1.83;;;;;;;28.33;27.13;100657.63;5099892;28;20440;-64
2022/06/03 09:22:59;;;;;;;2.00;1.80;;;;;;;27.22;27.27;100657.88;5100390;28;20879;-63
2022/06/03 09:25:27;;;;;;;2.10;1.53;;;;;;;27.56;28.22;100650.66;5103769;28;20545;-64
2022/06/03 09:27:54;;;;;;;2.60;1.93;;;;;;;28.22;26.68;100633.78;5104250;28;20446;-64
2022/06/03 09:30:27;;;;;;;2.40;1.80;;;;;;;27.75;27.28;100650.47;5103870;28;20739;-64
2022/06/03 09:32:56;;;;;;;2.20;2.00;;;;;;;27.64;27.08;100630.22;5103640;28;20454;-64
2022/06/03 09:35:26;;;;;;;2.57;1.50;;;;;;;27.82;27.10;100636.59;5103381;28;20451;-63
2022/06/03 09:37:55;;;;;;;2.93;1.53;;;;;;;27.32;28.21;100636.16;5103348;28;20443;-63
2022/06/03 09:40:23;;;;;;;2.60;1.60;;;;;;;27.17;27.95;100631.16;5102824;28;20443;-63
2022/06/03 09:42:53;;;;;;;2.00;1.60;;;;;;;27.47;27.88;100629.34;5104469;28;20454;-63
2022/06/03 09:45:21;;;;;;;5.33;1.80;;;;;;;28.19;27.58;100628.78;5102321;28;20492;-63
2022/06/03 09:47:48;;;;;;;2.23;1.80;;;;;;;27.27;28.43;100635.19;5103739;28;21006;-63
2022/06/03 09:50:16;;;;;;;2.53;1.90;;;;;;;27.15;28.15;100636.06;5103465;28;20427;-64
2022/06/03 09:52:44;;;;;;;1.90;1.80;;;;;;;26.06;30.47;100620.00;5102973;28;20487;-64
2022/06/03 09:55:24;;;;;;;3.10;1.70;;;;;;;26.09;31.08;100627.72;5103635;28;20423;-63
2022/06/03 09:57:51;;;;;;;2.00;1.73;;;;;;;26.14;30.90;100618.81;5101327;28;20442;-63
2022/06/03 10:00:21;;;;;;;2.57;1.60;;;;;;;24.88;32.37;100627.56;5082176;28;20466;-63
2022/06/03 10:02:48;;;;;;;2.97;1.67;;;;;;;24.92;33.96;100626.03;5086397;28;20505;-63
2022/06/03 10:05:17;;;;;;;1.93;1.53;;;;;;;26.57;31.68;100631.41;5103560;28;20447;-63
2022/06/03 10:07:46;;;;;;;2.50;1.50;;;;;;;27.74;28.78;100622.19;5103641;28;20478;-62
2022/06/03 10:13:00;;;;;;;1.57;1.47;;;;;;;27.31;28.95;100614.44;5091820;28;20496;-62
2022/06/03 10:15:39;;;;;;;1.80;1.70;;;;;;;27.92;27.93;100620.34;5103030;28;20494;-62
2022/06/03 10:18:15;;;;;;;1.87;1.77;;;;;;;27.90;27.99;100616.97;5103268;28;20454;-63
2022/06/03 10:20:43;;;;;;;3.10;1.80;;;;;;;27.19;28.28;100625.44;5102340;28;20485;-65
2022/06/03 10:23:12;;;;;;;2.63;2.00;;;;;;;27.16;28.60;100615.75;5103996;28;20464;-66
2022/06/03 10:25:39;;;;;;;3.27;2.03;;;;;;;27.90;29.25;100615.06;5103199;28;21071;-66
2022/06/03 10:28:08;;;;;;;3.73;1.50;;;;;;;27.48;30.24;100617.25;5102731;28;20903;-66
2022/06/03 10:30:37;;;;;;;3.90;1.57;;;;;;;27.41;29.05;100623.75;5102960;28;20528;-66
2022/06/03 10:33:05;;;;;;;2.73;1.83;;;;;;;26.46;30.03;100617.44;5103718;28;20486;-66
2022/06/03 10:35:38;;;;;;;2.33;2.07;;;;;;;26.78;29.57;100624.53;5101911;28;21085;-66
2022/06/03 10:38:06;;;;;;;2.37;1.90;;;;;;;26.64;29.83;100615.69;5102468;28;20485;-66
2022/06/03 10:40:36;;;;;;;2.27;1.37;;;;;;;27.18;29.50;100621.84;5102736;28;20529;-66
2022/06/03 10:43:04;;;;;;;2.47;1.80;;;;;;;26.52;30.98;100603.84;5102614;28;20481;-67
2022/06/03 10:45:32;;;;;;;2.73;1.60;;;;;;;26.33;31.50;100608.59;5101931;28;20466;-66
2022/06/03 10:47:59;;;;;;;1.73;1.63;;;;;;;26.96;29.81;100602.44;5100580;28;20451;-66
2022/06/03 10:50:29;;;;;;;2.20;2.00;;;;;;;26.33;30.31;100597.66;5099084;28;20451;-66
2022/06/03 11:01:33;;;;;;;1.80;1.57;;;;;;;27.31;30.27;100589.72;5100146;28;20474;-67
2022/06/03 11:04:00;;;;;;;1.90;1.70;;;;;;;27.83;28.78;100589.66;5102086;28;20447;-66
2022/06/03 11:06:29;;;;;;;2.20;1.33;;;;;;;27.07;28.64;100580.72;5100123;28;20512;-66
2022/06/03 11:08:59;;;;;;;2.00;1.63;;;;;;;26.31;30.28;100573.22;5101564;28;20991;-66
2022/06/03 11:11:43;;;;;;;2.00;1.63;;;;;;;27.26;30.03;100575.91;5109606;28;20567;-66
2022/06/03 11:14:28;;;;;;;3.93;1.80;;;;;;;27.47;27.89;100563.44;5102654;28;20461;-67
2022/06/03 11:17:01;;;;;;;2.17;1.90;;;;;;;26.41;30.41;100567.97;5101784;28;20500;-66
2022/06/03 11:19:32;;;;;;;1.63;1.53;;;;;;;26.34;30.94;100561.78;5101744;28;20476;-66
2022/06/03 11:22:13;;;;;;;5.03;2.00;;;;;;;26.36;30.36;100558.81;5100978;28;20583;-66
2022/06/03 11:24:40;;;;;;;2.83;1.60;;;;;;;26.31;30.92;100549.38;5102623;28;20465;-66
2022/06/03 11:27:09;;;;;;;2.33;1.80;;;;;;;26.99;30.96;100549.81;5101501;28;20471;-67
2022/06/03 11:29:37;;;;;;;1.70;1.40;;;;;;;26.89;31.23;100541.38;5102014;28;20451;-66
2022/06/03 11:32:07;;;;;;;2.40;1.50;;;;;;;27.74;29.56;100548.00;5101042;28;20514;-66
2022/06/03 11:34:36;;;;;;;1.63;1.53;;;;;;;26.59;29.64;100547.00;5101779;28;20442;-66
2022/06/03 11:37:07;;;;;;;1.87;1.77;;;;;;;26.86;30.13;100553.66;5100926;28;20462;-66
2022/06/03 11:39:36;;;;;;;2.17;1.70;;;;;;;26.47;30.02;100556.06;5102165;28;20451;-67
2022/06/03 11:42:09;;;;;;;1.60;1.37;;;;;;;26.66;29.04;100550.47;5099800;28;20540;-66
2022/06/03 11:44:38;;;;;;;2.20;1.70;;;;;;;26.13;29.43;100533.06;5101341;28;20446;-66
2022/06/03 11:47:09;;;;;;;2.57;1.40;;;;;;;26.53;31.08;100532.34;5100763;28;20537;-66
2022/06/03 11:49:36;;;;;;;3.20;1.70;;;;;;;25.69;31.54;100538.78;5092775;28;20439;-66
2022/06/03 11:52:04;;;;;;;2.80;1.77;;;;;;;25.90;31.05;100531.06;5101863;28;20611;-67
2022/06/03 11:54:31;;;;;;;2.30;1.80;;;;;;;26.19;30.65;100543.03;5102503;28;20437;-66
2022/06/03 11:57:00;;;;;;;2.40;1.97;;;;;;;26.02;30.56;100536.59;5100516;28;20486;-66
2022/06/03 11:59:32;;;;;;;2.23;2.03;;;;;;;25.71;31.87;100538.50;5100913;28;20431;-66
2022/06/03 12:02:02;;;;;;;2.00;1.63;;;;;;;25.04;32.77;100525.72;5100217;28;20501;-66
2022/06/03 12:04:38;;;;;;;2.43;1.93;;;;;;;25.26;33.23;100523.38;5101820;28;20478;-66
2022/06/03 12:07:15;;;;;;;2.33;1.70;;;;;;;24.41;33.62;100532.31;5100969;28;20515;-66
2022/06/03 12:09:46;;;;;;;2.17;1.87;;;;;;;24.59;33.79;100536.97;5101460;28;20528;-66
2022/06/03 12:15:34;;;;;;;2.50;1.97;;;;;;;24.33;34.03;100527.13;5101132;28;20439;-66
2022/06/03 12:18:17;;;;;;;2.10;1.90;;;;;;;24.17;33.63;100525.78;5101489;28;20523;-66
2022/06/03 12:20:53;;;;;;;3.13;2.30;;;;;;;24.71;34.52;100515.19;5097819;28;20534;-66
2022/06/03 12:23:51;;;;;;;2.20;1.43;;;;;;;25.45;33.03;100515.97;5101771;28;20447;-66
2022/06/03 12:26:24;;;;;;;1.80;1.70;;;;;;;24.65;32.99;100527.88;5100722;28;20478;-66
2022/06/03 12:28:52;;;;;;;2.20;2.00;;;;;;;24.19;33.87;100513.56;5088121;28;20457;-66
2022/06/03 12:31:34;;;;;;;2.40;1.80;;;;;;;24.63;32.62;100527.25;5100339;28;21068;-66
2022/06/03 12:34:11;;;;;;;2.50;1.93;;;;;;;24.49;32.60;100509.28;5100194;28;20695;-67
2022/06/03 12:36:40;;;;;;;3.03;1.67;;;;;;;24.83;33.48;100509.81;5099832;28;20474;-66
2022/06/03 12:39:21;;;;;;;3.27;2.03;;;;;;;24.13;33.81;100506.28;5099984;28;20447;-67
2022/06/03 12:42:04;;;;;;;2.63;1.90;;;;;;;24.46;34.80;100507.00;5099265;28;20470;-68
2022/06/03 12:44:50;;;;;;;2.17;2.00;;;;;;;23.71;36.97;100496.91;5100891;28;20583;-67
2022/06/03 12:47:27;;;;;;;2.50;2.30;;;;;;;24.22;35.66;100509.56;5099622;28;20999;-67
2022/06/03 12:49:55;;;;;;;3.20;2.07;;;;;;;24.59;34.04;100494.06;5100422;28;21028;-67
2022/06/03 12:52:39;;;;;;;3.20;2.10;;;;;;;24.78;34.19;100494.91;5099581;28;20471;-67
2022/06/03 12:55:10;;;;;;;2.70;2.30;;;;;;;24.95;34.76;100488.81;5100174;28;20435;-67
2022/06/03 12:57:43;;;;;;;3.03;2.30;;;;;;;24.88;35.59;100483.44;5099832;28;20471;-67